sensor_id;sensor_type;location;lat;lon;timestamp;P1;P2;P0
62631;PMS5003;48703;51.248;-0.546;2022-09-29T00:02:41;30.27;27.91;
62631;PMS5003;48703;51.248;-0.546;2022-09-29T00:05:47;28.74;26.91;
62631;PMS5003;48703;51.248;-0.546;2022-09-29T00:08:43;30.54;27.38;
62631;PMS5003;48703;51.248;-0.546;2022-09-29T00:11:44;28.06;24.97;
62631;PMS5003;48703;51.248;-0.546;2022-09-29T00:14:46;27.23;23.75;
62631;PMS5003;48703;51.248;-0.546;2022-09-29T00:17:46;27.17;25.33;
62631;PMS5003;48703;51.248;-0.546;2022-09-29T00:20:54;25.74;23.33;
62631;PMS5003;48703;51.248;-0.546;2022-09-29T00:23:49;25.94;23.17;
62631;PMS5003;48703;51.248;-0.546;2022-09-29T00:26:51;23.01;21.93;
62631;PMS5003;48703;51.248;-0.546;2022-09-29T00:29:52;23.00;22.37;
62631;PMS5003;48703;51.248;-0.546;2022-09-29T00:32:54;23.09;22.21;
62631;PMS5003;48703;51.248;-0.546;2022-09-29T00:35:55;21.87;20.43;
62631;PMS5003;48703;51.248;-0.546;2022-09-29T00:38:56;24.22;22.01;
62631;PMS5003;48703;51.248;-0.546;2022-09-29T00:41:57;20.53;18.43;
62631;PMS5003;48703;51.248;-0.546;2022-09-29T00:45:04;19.86;19.06;
62631;PMS5003;48703;51.248;-0.546;2022-09-29T00:48:02;17.61;17.04;
62631;PMS5003;48703;51.248;-0.546;2022-09-29T00:51:02;17.91;17.10;
62631;PMS5003;48703;51.248;-0.546;2022-09-29T00:54:04;17.51;15.38;
62631;PMS5003;48703;51.248;-0.546;2022-09-29T00:57:06;16.37;14.83;
62631;PMS5003;48703;51.248;-0.546;2022-09-29T01:00:08;15.20;14.24;
62631;PMS5003;48703;51.248;-0.546;2022-09-29T01:03:10;14.56;12.93;
62631;PMS5003;48703;51.248;-0.546;2022-09-29T01:06:11;15.97;14.50;
62631;PMS5003;48703;51.248;-0.546;2022-09-29T01:09:12;13.46;12.54;
62631;PMS5003;48703;51.248;-0.546;2022-09-29T01:12:13;14.19;14.19;
62631;PMS5003;48703;51.248;-0.546;2022-09-29T01:15:16;14.21;13.13;
62631;PMS5003;48703;51.248;-0.546;2022-09-29T01:18:16;13.61;12.90;
62631;PMS5003;48703;51.248;-0.546;2022-09-29T01:21:22;16.43;14.43;
62631;PMS5003;48703;51.248;-0.546;2022-09-29T01:24:26;15.17;14.38;
62631;PMS5003;48703;51.248;-0.546;2022-09-29T01:27:23;13.01;12.69;
62631;PMS5003;48703;51.248;-0.546;2022-09-29T01:30:24;11.74;11.23;
62631;PMS5003;48703;51.248;-0.546;2022-09-29T01:33:28;11.00;10.07;
62631;PMS5003;48703;51.248;-0.546;2022-09-29T01:36:28;13.53;11.67;
62631;PMS5003;48703;51.248;-0.546;2022-09-29T01:39:29;11.40;10.37;
62631;PMS5003;48703;51.248;-0.546;2022-09-29T01:42:31;10.89;10.33;
62631;PMS5003;48703;51.248;-0.546;2022-09-29T01:45:32;11.81;11.01;
62631;PMS5003;48703;51.248;-0.546;2022-09-29T01:48:33;10.34;10.13;
62631;PMS5003;48703;51.248;-0.546;2022-09-29T01:51:35;9.93;9.39;
62631;PMS5003;48703;51.248;-0.546;2022-09-29T01:54:39;10.44;8.87;
62631;PMS5003;48703;51.248;-0.546;2022-09-29T01:57:41;10.84;10.16;
62631;PMS5003;48703;51.248;-0.546;2022-09-29T02:00:42;9.93;8.81;
62631;PMS5003;48703;51.248;-0.546;2022-09-29T02:03:42;10.90;9.53;
62631;PMS5003;48703;51.248;-0.546;2022-09-29T02:06:44;10.14;9.41;
62631;PMS5003;48703;51.248;-0.546;2022-09-29T02:09:47;8.00;7.90;
62631;PMS5003;48703;51.248;-0.546;2022-09-29T02:12:46;9.54;9.41;
62631;PMS5003;48703;51.248;-0.546;2022-09-29T02:15:48;9.50;8.77;
62631;PMS5003;48703;51.248;-0.546;2022-09-29T02:18:51;8.69;8.30;
62631;PMS5003;48703;51.248;-0.546;2022-09-29T02:21:52;9.31;8.33;
62631;PMS5003;48703;51.248;-0.546;2022-09-29T02:24:54;7.71;7.61;
62631;PMS5003;48703;51.248;-0.546;2022-09-29T02:27:55;8.49;7.47;
62631;PMS5003;48703;51.248;-0.546;2022-09-29T02:30:57;8.67;8.14;
62631;PMS5003;48703;51.248;-0.546;2022-09-29T02:33:59;7.69;7.69;
62631;PMS5003;48703;51.248;-0.546;2022-09-29T02:37:01;8.13;7.39;
62631;PMS5003;48703;51.248;-0.546;2022-09-29T02:40:07;9.77;9.77;
62631;PMS5003;48703;51.248;-0.546;2022-09-29T02:43:09;8.16;7.81;
62631;PMS5003;48703;51.248;-0.546;2022-09-29T02:46:08;9.59;8.71;
62631;PMS5003;48703;51.248;-0.546;2022-09-29T02:49:12;8.97;8.39;
62631;PMS5003;48703;51.248;-0.546;2022-09-29T02:52:11;8.07;7.59;
62631;PMS5003;48703;51.248;-0.546;2022-09-29T02:55:12;9.00;8.44;
62631;PMS5003;48703;51.248;-0.546;2022-09-29T02:58:14;7.36;7.20;
62631;PMS5003;48703;51.248;-0.546;2022-09-29T03:01:14;9.39;8.87;
62631;PMS5003;48703;51.248;-0.546;2022-09-29T03:04:16;9.19;8.11;
62631;PMS5003;48703;51.248;-0.546;2022-09-29T03:07:18;7.96;7.27;
62631;PMS5003;48703;51.248;-0.546;2022-09-29T03:10:19;8.26;8.01;
62631;PMS5003;48703;51.248;-0.546;2022-09-29T03:13:21;7.63;6.63;
62631;PMS5003;48703;51.248;-0.546;2022-09-29T03:16:23;8.36;7.03;
62631;PMS5003;48703;51.248;-0.546;2022-09-29T03:19:25;9.40;8.16;
62631;PMS5003;48703;51.248;-0.546;2022-09-29T03:22:26;7.21;7.21;
62631;PMS5003;48703;51.248;-0.546;2022-09-29T03:25:28;8.27;7.06;
62631;PMS5003;48703;51.248;-0.546;2022-09-29T03:28:30;6.93;6.83;
62631;PMS5003;48703;51.248;-0.546;2022-09-29T03:31:32;8.07;6.79;
62631;PMS5003;48703;51.248;-0.546;2022-09-29T03:34:34;6.47;5.96;
62631;PMS5003;48703;51.248;-0.546;2022-09-29T03:37:35;5.96;5.83;
62631;PMS5003;48703;51.248;-0.546;2022-09-29T03:40:37;6.33;5.63;
62631;PMS5003;48703;51.248;-0.546;2022-09-29T03:43:39;7.41;7.41;
62631;PMS5003;48703;51.248;-0.546;2022-09-29T03:46:41;6.16;6.16;
62631;PMS5003;48703;51.248;-0.546;2022-09-29T03:49:43;6.27;6.27;
62631;PMS5003;48703;51.248;-0.546;2022-09-29T03:52:44;6.26;4.91;
62631;PMS5003;48703;51.248;-0.546;2022-09-29T03:55:46;6.86;6.46;
62631;PMS5003;48703;51.248;-0.546;2022-09-29T03:58:48;6.27;6.09;
62631;PMS5003;48703;51.248;-0.546;2022-09-29T04:01:50;5.56;5.29;
62631;PMS5003;48703;51.248;-0.546;2022-09-29T04:04:51;7.49;6.41;
62631;PMS5003;48703;51.248;-0.546;2022-09-29T04:07:53;6.39;6.34;
62631;PMS5003;48703;51.248;-0.546;2022-09-29T04:10:55;6.31;6.19;
62631;PMS5003;48703;51.248;-0.546;2022-09-29T04:13:57;5.61;5.19;
62631;PMS5003;48703;51.248;-0.546;2022-09-29T04:16:58;6.09;6.00;
62631;PMS5003;48703;51.248;-0.546;2022-09-29T04:20:00;6.26;6.26;
62631;PMS5003;48703;51.248;-0.546;2022-09-29T04:23:02;6.66;6.66;
62631;PMS5003;48703;51.248;-0.546;2022-09-29T04:26:04;6.87;6.27;
62631;PMS5003;48703;51.248;-0.546;2022-09-29T04:29:06;5.86;5.59;
62631;PMS5003;48703;51.248;-0.546;2022-09-29T04:32:07;7.17;6.36;
62631;PMS5003;48703;51.248;-0.546;2022-09-29T04:35:09;6.99;6.06;
62631;PMS5003;48703;51.248;-0.546;2022-09-29T04:38:11;6.63;5.69;
62631;PMS5003;48703;51.248;-0.546;2022-09-29T04:41:13;5.61;5.39;
62631;PMS5003;48703;51.248;-0.546;2022-09-29T04:44:14;6.19;5.33;
62631;PMS5003;48703;51.248;-0.546;2022-09-29T04:47:16;6.94;6.17;
62631;PMS5003;48703;51.248;-0.546;2022-09-29T04:50:18;7.16;6.13;
62631;PMS5003;48703;51.248;-0.546;2022-09-29T04:53:20;6.93;6.80;
62631;PMS5003;48703;51.248;-0.546;2022-09-29T04:56:22;5.76;5.29;
62631;PMS5003;48703;51.248;-0.546;2022-09-29T04:59:23;5.19;4.76;
62631;PMS5003;48703;51.248;-0.546;2022-09-29T05:02:25;4.99;4.77;
62631;PMS5003;48703;51.248;-0.546;2022-09-29T05:05:26;5.63;5.63;
62631;PMS5003;48703;51.248;-0.546;2022-09-29T05:08:28;4.97;4.97;
62631;PMS5003;48703;51.248;-0.546;2022-09-29T05:11:30;5.81;4.74;
62631;PMS5003;48703;51.248;-0.546;2022-09-29T05:14:32;5.71;5.10;
62631;PMS5003;48703;51.248;-0.546;2022-09-29T05:17:33;5.70;4.29;
62631;PMS5003;48703;51.248;-0.546;2022-09-29T05:20:35;4.30;3.83;
62631;PMS5003;48703;51.248;-0.546;2022-09-29T05:23:37;4.47;4.07;
62631;PMS5003;48703;51.248;-0.546;2022-09-29T05:26:39;4.36;3.97;
62631;PMS5003;48703;51.248;-0.546;2022-09-29T05:29:40;5.17;4.16;
62631;PMS5003;48703;51.248;-0.546;2022-09-29T05:32:42;5.53;4.07;
62631;PMS5003;48703;51.248;-0.546;2022-09-29T05:35:44;3.61;3.61;
62631;PMS5003;48703;51.248;-0.546;2022-09-29T05:38:46;4.14;4.14;
62631;PMS5003;48703;51.248;-0.546;2022-09-29T05:41:48;3.83;3.83;
62631;PMS5003;48703;51.248;-0.546;2022-09-29T05:44:49;4.10;3.80;
62631;PMS5003;48703;51.248;-0.546;2022-09-29T05:47:51;4.67;4.67;
62631;PMS5003;48703;51.248;-0.546;2022-09-29T05:50:53;4.61;4.16;
62631;PMS5003;48703;51.248;-0.546;2022-09-29T05:53:55;4.19;3.84;
62631;PMS5003;48703;51.248;-0.546;2022-09-29T05:56:56;2.76;2.76;
62631;PMS5003;48703;51.248;-0.546;2022-09-29T05:59:58;3.93;3.56;
62631;PMS5003;48703;51.248;-0.546;2022-09-29T06:03:00;4.03;4.03;
62631;PMS5003;48703;51.248;-0.546;2022-09-29T06:06:03;4.97;4.20;
62631;PMS5003;48703;51.248;-0.546;2022-09-29T06:09:03;5.53;4.33;
62631;PMS5003;48703;51.248;-0.546;2022-09-29T06:12:05;5.74;4.86;
62631;PMS5003;48703;51.248;-0.546;2022-09-29T06:15:07;5.20;4.47;
62631;PMS5003;48703;51.248;-0.546;2022-09-29T06:18:08;5.25;4.57;
62631;PMS5003;48703;51.248;-0.546;2022-09-29T06:21:11;5.26;4.83;
62631;PMS5003;48703;51.248;-0.546;2022-09-29T06:24:12;4.29;3.86;
62631;PMS5003;48703;51.248;-0.546;2022-09-29T06:27:14;5.30;4.96;
62631;PMS5003;48703;51.248;-0.546;2022-09-29T06:30:15;4.94;4.09;
62631;PMS5003;48703;51.248;-0.546;2022-09-29T06:33:17;4.80;4.24;
62631;PMS5003;48703;51.248;-0.546;2022-09-29T06:36:19;6.73;5.69;
62631;PMS5003;48703;51.248;-0.546;2022-09-29T06:39:21;4.76;4.76;
62631;PMS5003;48703;51.248;-0.546;2022-09-29T06:42:22;4.36;4.36;
62631;PMS5003;48703;51.248;-0.546;2022-09-29T06:45:24;4.37;4.37;
62631;PMS5003;48703;51.248;-0.546;2022-09-29T06:48:26;4.51;3.70;
62631;PMS5003;48703;51.248;-0.546;2022-09-29T06:51:28;5.00;4.64;
62631;PMS5003;48703;51.248;-0.546;2022-09-29T06:54:29;4.87;4.87;
62631;PMS5003;48703;51.248;-0.546;2022-09-29T06:57:31;5.34;4.66;
62631;PMS5003;48703;51.248;-0.546;2022-09-29T07:00:33;5.27;5.27;
62631;PMS5003;48703;51.248;-0.546;2022-09-29T07:03:35;6.16;5.43;
62631;PMS5003;48703;51.248;-0.546;2022-09-29T07:06:36;8.70;6.81;
62631;PMS5003;48703;51.248;-0.546;2022-09-29T07:09:38;6.20;5.34;
62631;PMS5003;48703;51.248;-0.546;2022-09-29T07:12:40;4.84;4.84;
62631;PMS5003;48703;51.248;-0.546;2022-09-29T07:15:42;5.00;5.00;
62631;PMS5003;48703;51.248;-0.546;2022-09-29T07:18:43;7.23;5.53;
62631;PMS5003;48703;51.248;-0.546;2022-09-29T07:21:45;6.23;6.23;
62631;PMS5003;48703;51.248;-0.546;2022-09-29T07:24:47;7.34;7.07;
62631;PMS5003;48703;51.248;-0.546;2022-09-29T07:27:49;6.11;5.56;
62631;PMS5003;48703;51.248;-0.546;2022-09-29T07:30:59;6.83;6.51;
62631;PMS5003;48703;51.248;-0.546;2022-09-29T07:33:52;7.79;6.97;
62631;PMS5003;48703;51.248;-0.546;2022-09-29T07:36:54;6.01;5.91;
62631;PMS5003;48703;51.248;-0.546;2022-09-29T07:39:56;8.06;7.01;
62631;PMS5003;48703;51.248;-0.546;2022-09-29T07:42:57;6.20;5.41;
62631;PMS5003;48703;51.248;-0.546;2022-09-29T07:45:59;7.14;6.34;
62631;PMS5003;48703;51.248;-0.546;2022-09-29T07:49:01;8.16;7.53;
62631;PMS5003;48703;51.248;-0.546;2022-09-29T07:52:02;7.96;7.61;
62631;PMS5003;48703;51.248;-0.546;2022-09-29T07:55:04;7.87;7.64;
62631;PMS5003;48703;51.248;-0.546;2022-09-29T07:58:06;10.37;9.90;
62631;PMS5003;48703;51.248;-0.546;2022-09-29T08:01:08;11.57;10.01;
62631;PMS5003;48703;51.248;-0.546;2022-09-29T08:04:09;10.60;9.86;
62631;PMS5003;48703;51.248;-0.546;2022-09-29T08:07:11;8.91;8.10;
62631;PMS5003;48703;51.248;-0.546;2022-09-29T08:10:12;11.67;10.24;
62631;PMS5003;48703;51.248;-0.546;2022-09-29T08:13:14;9.23;8.84;
62631;PMS5003;48703;51.248;-0.546;2022-09-29T08:16:16;8.90;8.61;
62631;PMS5003;48703;51.248;-0.546;2022-09-29T08:19:18;8.57;7.87;
62631;PMS5003;48703;51.248;-0.546;2022-09-29T08:22:19;7.91;7.76;
62631;PMS5003;48703;51.248;-0.546;2022-09-29T08:25:21;6.36;6.23;
62631;PMS5003;48703;51.248;-0.546;2022-09-29T08:28:23;8.06;7.41;
62631;PMS5003;48703;51.248;-0.546;2022-09-29T08:31:25;5.69;5.60;
62631;PMS5003;48703;51.248;-0.546;2022-09-29T08:34:26;5.54;5.54;
62631;PMS5003;48703;51.248;-0.546;2022-09-29T08:37:28;6.97;6.45;
62631;PMS5003;48703;51.248;-0.546;2022-09-29T08:40:29;6.40;6.31;
62631;PMS5003;48703;51.248;-0.546;2022-09-29T08:43:32;5.56;4.44;
62631;PMS5003;48703;51.248;-0.546;2022-09-29T08:46:34;5.19;5.19;
62631;PMS5003;48703;51.248;-0.546;2022-09-29T08:49:36;5.70;5.17;
62631;PMS5003;48703;51.248;-0.546;2022-09-29T08:52:37;5.06;4.80;
62631;PMS5003;48703;51.248;-0.546;2022-09-29T08:55:40;5.93;5.50;
62631;PMS5003;48703;51.248;-0.546;2022-09-29T08:58:40;5.81;5.54;
62631;PMS5003;48703;51.248;-0.546;2022-09-29T09:01:45;7.04;6.70;
62631;PMS5003;48703;51.248;-0.546;2022-09-29T09:04:46;8.93;7.53;
62631;PMS5003;48703;51.248;-0.546;2022-09-29T09:07:45;7.47;7.21;
62631;PMS5003;48703;51.248;-0.546;2022-09-29T09:10:47;7.13;6.97;
62631;PMS5003;48703;51.248;-0.546;2022-09-29T09:13:51;7.10;5.93;
62631;PMS5003;48703;51.248;-0.546;2022-09-29T09:16:52;8.97;6.50;
62631;PMS5003;48703;51.248;-0.546;2022-09-29T09:19:56;9.84;8.50;
62631;PMS5003;48703;51.248;-0.546;2022-09-29T09:22:55;7.96;7.96;
62631;PMS5003;48703;51.248;-0.546;2022-09-29T09:25:55;5.77;5.56;
62631;PMS5003;48703;51.248;-0.546;2022-09-29T09:28:56;6.29;6.06;
62631;PMS5003;48703;51.248;-0.546;2022-09-29T09:31:58;5.51;4.76;
62631;PMS5003;48703;51.248;-0.546;2022-09-29T09:35:00;5.21;4.66;
62631;PMS5003;48703;51.248;-0.546;2022-09-29T09:38:02;4.79;4.79;
62631;PMS5003;48703;51.248;-0.546;2022-09-29T09:41:02;7.11;5.91;
62631;PMS5003;48703;51.248;-0.546;2022-09-29T09:44:05;5.64;5.64;
62631;PMS5003;48703;51.248;-0.546;2022-09-29T09:47:10;5.74;5.51;
62631;PMS5003;48703;51.248;-0.546;2022-09-29T09:50:11;5.49;5.06;
62631;PMS5003;48703;51.248;-0.546;2022-09-29T09:53:11;6.89;6.11;
62631;PMS5003;48703;51.248;-0.546;2022-09-29T09:56:12;6.60;5.81;
62631;PMS5003;48703;51.248;-0.546;2022-09-29T09:59:15;6.16;5.93;
62631;PMS5003;48703;51.248;-0.546;2022-09-29T10:02:15;7.27;6.44;
62631;PMS5003;48703;51.248;-0.546;2022-09-29T10:05:17;5.06;4.94;
62631;PMS5003;48703;51.248;-0.546;2022-09-29T10:08:20;6.00;5.47;
62631;PMS5003;48703;51.248;-0.546;2022-09-29T10:11:21;6.33;6.03;
62631;PMS5003;48703;51.248;-0.546;2022-09-29T10:14:21;6.13;5.51;
62631;PMS5003;48703;51.248;-0.546;2022-09-29T10:17:22;6.35;6.32;
62631;PMS5003;48703;51.248;-0.546;2022-09-29T10:20:28;8.53;7.43;
62631;PMS5003;48703;51.248;-0.546;2022-09-29T10:23:27;7.91;7.59;
62631;PMS5003;48703;51.248;-0.546;2022-09-29T10:26:27;6.21;6.19;
62631;PMS5003;48703;51.248;-0.546;2022-09-29T10:29:30;6.97;5.96;
62631;PMS5003;48703;51.248;-0.546;2022-09-29T10:32:30;6.39;5.57;
62631;PMS5003;48703;51.248;-0.546;2022-09-29T10:35:32;4.17;4.17;
62631;PMS5003;48703;51.248;-0.546;2022-09-29T10:38:34;6.69;4.66;
62631;PMS5003;48703;51.248;-0.546;2022-09-29T10:41:48;5.71;5.10;
62631;PMS5003;48703;51.248;-0.546;2022-09-29T10:44:37;4.97;4.43;
62631;PMS5003;48703;51.248;-0.546;2022-09-29T10:47:38;4.09;4.04;
62631;PMS5003;48703;51.248;-0.546;2022-09-29T10:50:47;4.00;3.47;
62631;PMS5003;48703;51.248;-0.546;2022-09-29T10:53:42;3.16;3.16;
62631;PMS5003;48703;51.248;-0.546;2022-09-29T10:56:45;2.66;2.34;
62631;PMS5003;48703;51.248;-0.546;2022-09-29T10:59:45;2.54;2.17;
62631;PMS5003;48703;51.248;-0.546;2022-09-29T11:02:46;2.39;2.39;
62631;PMS5003;48703;51.248;-0.546;2022-09-29T11:05:50;1.99;1.21;
62631;PMS5003;48703;51.248;-0.546;2022-09-29T11:08:54;0.89;0.89;
62631;PMS5003;48703;51.248;-0.546;2022-09-29T11:11:52;1.03;1.03;
62631;PMS5003;48703;51.248;-0.546;2022-09-29T11:14:53;1.17;1.17;
62631;PMS5003;48703;51.248;-0.546;2022-09-29T11:17:55;0.90;0.90;
62631;PMS5003;48703;51.248;-0.546;2022-09-29T11:20:57;0.94;0.94;
62631;PMS5003;48703;51.248;-0.546;2022-09-29T11:23:58;1.43;1.43;
62631;PMS5003;48703;51.248;-0.546;2022-09-29T11:27:01;1.00;1.00;
62631;PMS5003;48703;51.248;-0.546;2022-09-29T11:30:03;2.86;2.86;
62631;PMS5003;48703;51.248;-0.546;2022-09-29T11:33:08;3.54;3.54;
62631;PMS5003;48703;51.248;-0.546;2022-09-29T11:36:06;2.87;2.76;
62631;PMS5003;48703;51.248;-0.546;2022-09-29T11:39:09;4.83;4.54;
62631;PMS5003;48703;51.248;-0.546;2022-09-29T11:42:12;6.31;6.01;
62631;PMS5003;48703;51.248;-0.546;2022-09-29T11:45:09;6.30;6.00;
62631;PMS5003;48703;51.248;-0.546;2022-09-29T11:49:19;5.73;5.73;
62631;PMS5003;48703;51.248;-0.546;2022-09-29T11:51:14;6.00;5.71;
62631;PMS5003;48703;51.248;-0.546;2022-09-29T11:54:19;6.47;5.74;
62631;PMS5003;48703;51.248;-0.546;2022-09-29T11:57:17;9.43;9.43;
62631;PMS5003;48703;51.248;-0.546;2022-09-29T12:00:17;7.40;7.23;
62631;PMS5003;48703;51.248;-0.546;2022-09-29T12:03:20;7.57;6.81;
62631;PMS5003;48703;51.248;-0.546;2022-09-29T12:06:27;6.33;6.00;
62631;PMS5003;48703;51.248;-0.546;2022-09-29T12:09:27;6.67;6.40;
62631;PMS5003;48703;51.248;-0.546;2022-09-29T12:12:24;4.93;4.73;
62631;PMS5003;48703;51.248;-0.546;2022-09-29T12:15:26;8.60;7.19;
62631;PMS5003;48703;51.248;-0.546;2022-09-29T12:18:27;5.71;5.63;
62631;PMS5003;48703;51.248;-0.546;2022-09-29T12:21:29;6.54;6.29;
62631;PMS5003;48703;51.248;-0.546;2022-09-29T12:24:32;5.54;5.20;
62631;PMS5003;48703;51.248;-0.546;2022-09-29T12:27:32;5.59;4.93;
62631;PMS5003;48703;51.248;-0.546;2022-09-29T12:30:33;4.79;4.79;
62631;PMS5003;48703;51.248;-0.546;2022-09-29T12:33:35;6.80;6.80;
62631;PMS5003;48703;51.248;-0.546;2022-09-29T12:36:39;6.43;6.04;
62631;PMS5003;48703;51.248;-0.546;2022-09-29T12:39:39;5.57;5.57;
62631;PMS5003;48703;51.248;-0.546;2022-09-29T12:42:40;6.34;6.13;
62631;PMS5003;48703;51.248;-0.546;2022-09-29T12:45:42;6.14;5.29;
62631;PMS5003;48703;51.248;-0.546;2022-09-29T12:48:44;4.79;4.19;
62631;PMS5003;48703;51.248;-0.546;2022-09-29T12:51:43;4.49;4.31;
62631;PMS5003;48703;51.248;-0.546;2022-09-29T12:54:45;5.99;5.56;
62631;PMS5003;48703;51.248;-0.546;2022-09-29T12:57:46;6.39;5.83;
62631;PMS5003;48703;51.248;-0.546;2022-09-29T13:00:48;5.09;4.64;
62631;PMS5003;48703;51.248;-0.546;2022-09-29T13:03:54;4.33;4.33;
62631;PMS5003;48703;51.248;-0.546;2022-09-29T13:07:57;5.21;5.00;
62631;PMS5003;48703;51.248;-0.546;2022-09-29T13:10:56;5.87;5.57;
62631;PMS5003;48703;51.248;-0.546;2022-09-29T13:15:57;5.97;5.97;
62631;PMS5003;48703;51.248;-0.546;2022-09-29T13:19:18;6.16;6.16;
62631;PMS5003;48703;51.248;-0.546;2022-09-29T13:22:00;4.61;4.61;
62631;PMS5003;48703;51.248;-0.546;2022-09-29T13:25:01;4.66;4.43;
62631;PMS5003;48703;51.248;-0.546;2022-09-29T13:28:17;5.31;4.89;
62631;PMS5003;48703;51.248;-0.546;2022-09-29T13:31:04;5.09;4.83;
62631;PMS5003;48703;51.248;-0.546;2022-09-29T13:34:04;6.03;4.87;
62631;PMS5003;48703;51.248;-0.546;2022-09-29T13:37:07;6.17;5.27;
62631;PMS5003;48703;51.248;-0.546;2022-09-29T13:40:14;4.77;4.77;
62631;PMS5003;48703;51.248;-0.546;2022-09-29T13:43:15;3.73;3.43;
62631;PMS5003;48703;51.248;-0.546;2022-09-29T13:46:32;4.13;3.43;
62631;PMS5003;48703;51.248;-0.546;2022-09-29T13:49:13;5.17;4.57;
62631;PMS5003;48703;51.248;-0.546;2022-09-29T13:52:28;4.57;4.06;
62631;PMS5003;48703;51.248;-0.546;2022-09-29T13:55:48;3.73;3.43;
62631;PMS5003;48703;51.248;-0.546;2022-09-29T13:58:21;4.01;4.01;
62631;PMS5003;48703;51.248;-0.546;2022-09-29T14:01:27;5.19;5.14;
62631;PMS5003;48703;51.248;-0.546;2022-09-29T14:06:21;4.69;4.69;
62631;PMS5003;48703;51.248;-0.546;2022-09-29T14:09:23;5.90;5.10;
62631;PMS5003;48703;51.248;-0.546;2022-09-29T14:12:25;6.47;6.47;
62631;PMS5003;48703;51.248;-0.546;2022-09-29T14:15:26;6.76;6.54;
62631;PMS5003;48703;51.248;-0.546;2022-09-29T14:18:29;7.24;6.71;
62631;PMS5003;48703;51.248;-0.546;2022-09-29T14:21:46;5.17;4.67;
62631;PMS5003;48703;51.248;-0.546;2022-09-29T14:24:46;5.44;5.37;
62631;PMS5003;48703;51.248;-0.546;2022-09-29T14:27:32;6.71;6.30;
62631;PMS5003;48703;51.248;-0.546;2022-09-29T14:30:38;6.30;6.30;
62631;PMS5003;48703;51.248;-0.546;2022-09-29T14:33:35;4.91;4.67;
62631;PMS5003;48703;51.248;-0.546;2022-09-29T14:36:37;5.29;5.09;
62631;PMS5003;48703;51.248;-0.546;2022-09-29T14:39:38;4.87;4.23;
62631;PMS5003;48703;51.248;-0.546;2022-09-29T14:42:40;4.03;3.69;
62631;PMS5003;48703;51.248;-0.546;2022-09-29T14:46:00;4.30;3.84;
62631;PMS5003;48703;51.248;-0.546;2022-09-29T14:48:46;3.27;3.27;
62631;PMS5003;48703;51.248;-0.546;2022-09-29T14:51:45;3.96;3.96;
62631;PMS5003;48703;51.248;-0.546;2022-09-29T14:54:49;4.96;4.20;
62631;PMS5003;48703;51.248;-0.546;2022-09-29T14:57:52;3.87;3.63;
62631;PMS5003;48703;51.248;-0.546;2022-09-29T15:00:52;4.29;3.99;
62631;PMS5003;48703;51.248;-0.546;2022-09-29T15:03:51;2.73;2.73;
62631;PMS5003;48703;51.248;-0.546;2022-09-29T15:06:52;2.80;2.80;
62631;PMS5003;48703;51.248;-0.546;2022-09-29T15:09:54;3.07;3.07;
62631;PMS5003;48703;51.248;-0.546;2022-09-29T15:13:13;3.96;3.96;
62631;PMS5003;48703;51.248;-0.546;2022-09-29T15:15:59;4.31;4.31;
62631;PMS5003;48703;51.248;-0.546;2022-09-29T15:19:10;4.51;3.74;
62631;PMS5003;48703;51.248;-0.546;2022-09-29T15:22:03;4.09;3.73;
62631;PMS5003;48703;51.248;-0.546;2022-09-29T15:25:05;4.66;4.10;
62631;PMS5003;48703;51.248;-0.546;2022-09-29T15:28:04;4.79;4.79;
62631;PMS5003;48703;51.248;-0.546;2022-09-29T15:31:05;3.76;3.76;
62631;PMS5003;48703;51.248;-0.546;2022-09-29T15:34:08;4.07;3.91;
62631;PMS5003;48703;51.248;-0.546;2022-09-29T15:37:10;3.97;3.50;
62631;PMS5003;48703;51.248;-0.546;2022-09-29T15:40:10;3.99;3.77;
62631;PMS5003;48703;51.248;-0.546;2022-09-29T15:43:17;3.53;3.53;
62631;PMS5003;48703;51.248;-0.546;2022-09-29T15:46:14;3.89;3.89;
62631;PMS5003;48703;51.248;-0.546;2022-09-29T15:49:15;3.60;3.07;
62631;PMS5003;48703;51.248;-0.546;2022-09-29T15:52:15;3.86;2.96;
62631;PMS5003;48703;51.248;-0.546;2022-09-29T15:55:17;3.29;2.44;
62631;PMS5003;48703;51.248;-0.546;2022-09-29T15:58:35;3.54;2.46;
62631;PMS5003;48703;51.248;-0.546;2022-09-29T16:01:20;3.07;3.07;
62631;PMS5003;48703;51.248;-0.546;2022-09-29T16:04:21;3.21;2.49;
62631;PMS5003;48703;51.248;-0.546;2022-09-29T16:07:24;3.57;3.40;
62631;PMS5003;48703;51.248;-0.546;2022-09-29T16:10:26;5.39;4.36;
62631;PMS5003;48703;51.248;-0.546;2022-09-29T16:13:27;3.51;3.14;
62631;PMS5003;48703;51.248;-0.546;2022-09-29T16:16:31;4.11;3.24;
62631;PMS5003;48703;51.248;-0.546;2022-09-29T16:19:29;3.50;3.21;
62631;PMS5003;48703;51.248;-0.546;2022-09-29T16:22:31;4.41;3.97;
62631;PMS5003;48703;51.248;-0.546;2022-09-29T16:25:32;4.34;4.26;
62631;PMS5003;48703;51.248;-0.546;2022-09-29T16:28:34;3.46;3.09;
62631;PMS5003;48703;51.248;-0.546;2022-09-29T16:31:36;4.39;4.39;
62631;PMS5003;48703;51.248;-0.546;2022-09-29T16:34:37;6.73;5.89;
62631;PMS5003;48703;51.248;-0.546;2022-09-29T16:37:38;9.69;8.80;
62631;PMS5003;48703;51.248;-0.546;2022-09-29T16:40:40;5.03;4.56;
62631;PMS5003;48703;51.248;-0.546;2022-09-29T16:43:41;6.31;5.24;
62631;PMS5003;48703;51.248;-0.546;2022-09-29T16:46:44;5.36;4.81;
62631;PMS5003;48703;51.248;-0.546;2022-09-29T16:49:46;5.56;4.70;
62631;PMS5003;48703;51.248;-0.546;2022-09-29T16:52:47;6.69;6.69;
62631;PMS5003;48703;51.248;-0.546;2022-09-29T16:55:54;3.63;3.63;
62631;PMS5003;48703;51.248;-0.546;2022-09-29T16:59:00;3.84;3.84;
62631;PMS5003;48703;51.248;-0.546;2022-09-29T17:01:51;5.41;4.76;
62631;PMS5003;48703;51.248;-0.546;2022-09-29T17:04:53;4.26;4.26;
62631;PMS5003;48703;51.248;-0.546;2022-09-29T17:07:58;5.23;4.96;
62631;PMS5003;48703;51.248;-0.546;2022-09-29T17:10:55;4.86;4.49;
62631;PMS5003;48703;51.248;-0.546;2022-09-29T17:13:57;5.99;5.04;
62631;PMS5003;48703;51.248;-0.546;2022-09-29T17:16:58;4.46;3.99;
62631;PMS5003;48703;51.248;-0.546;2022-09-29T17:20:00;4.94;4.94;
62631;PMS5003;48703;51.248;-0.546;2022-09-29T17:23:02;5.39;4.87;
62631;PMS5003;48703;51.248;-0.546;2022-09-29T17:26:03;5.81;5.81;
62631;PMS5003;48703;51.248;-0.546;2022-09-29T17:29:04;5.29;5.13;
62631;PMS5003;48703;51.248;-0.546;2022-09-29T17:32:08;6.74;5.87;
62631;PMS5003;48703;51.248;-0.546;2022-09-29T17:35:08;7.09;6.84;
62631;PMS5003;48703;51.248;-0.546;2022-09-29T17:38:09;6.19;5.86;
62631;PMS5003;48703;51.248;-0.546;2022-09-29T17:41:11;6.33;6.01;
62631;PMS5003;48703;51.248;-0.546;2022-09-29T17:44:12;6.97;6.81;
62631;PMS5003;48703;51.248;-0.546;2022-09-29T17:47:14;10.43;9.39;
62631;PMS5003;48703;51.248;-0.546;2022-09-29T17:50:17;9.01;8.81;
62631;PMS5003;48703;51.248;-0.546;2022-09-29T17:53:17;7.66;6.91;
62631;PMS5003;48703;51.248;-0.546;2022-09-29T17:56:19;6.26;6.26;
62631;PMS5003;48703;51.248;-0.546;2022-09-29T17:59:20;7.13;7.13;
62631;PMS5003;48703;51.248;-0.546;2022-09-29T18:02:21;8.57;7.79;
62631;PMS5003;48703;51.248;-0.546;2022-09-29T18:05:23;7.11;7.09;
62631;PMS5003;48703;51.248;-0.546;2022-09-29T18:08:25;8.87;7.41;
62631;PMS5003;48703;51.248;-0.546;2022-09-29T18:11:26;7.86;7.49;
62631;PMS5003;48703;51.248;-0.546;2022-09-29T18:14:28;7.51;7.00;
62631;PMS5003;48703;51.248;-0.546;2022-09-29T18:17:29;9.79;9.71;
62631;PMS5003;48703;51.248;-0.546;2022-09-29T18:20:32;10.40;10.00;
62631;PMS5003;48703;51.248;-0.546;2022-09-29T18:23:33;9.93;9.71;
62631;PMS5003;48703;51.248;-0.546;2022-09-29T18:26:34;15.46;13.73;
62631;PMS5003;48703;51.248;-0.546;2022-09-29T18:29:36;19.11;17.57;
62631;PMS5003;48703;51.248;-0.546;2022-09-29T18:32:38;19.36;18.24;